events-overview

Kinetic Half

 

Overall Women

Lake Anna State Park - Spotsylvania, VA 5/14/2011 07:00AM

** Results are for the private use of participants and are the Intellectual Property of Set Up Events. Unauthorized use of these results is prohibited.

Place Bib Ag S NAME city/state Rank SWIM Rank T1 Rank BIKE Rank T2 Rank RUN PENALTY TIME DQ
146131FSuzy McCulloch SerpicoColumbia MD200:28:211000:02:15202:27:37200:01:08301:33:56 04:33:14 
253329FMichelle BozarthHampton VA300:28:24200:01:541802:40:072000:01:35101:28:30 04:40:28 
346430FMolly RoohiKing George VA2900:35:01300:01:56502:32:41300:01:14201:30:41 04:41:31 
455926FLindsay WohlersHyattsville MD1100:31:071200:02:161102:37:091400:01:29501:34:37 04:46:37 
554927FBrianna CashCollege Park MD2500:34:451400:02:20402:32:38100:00:47801:37:50 04:48:18 
653529FRenee KunnenRichmond VA2600:34:46100:01:53802:33:581900:01:33901:38:37 04:50:46 
720141FOlwen HuxleyWashington DC800:30:273700:02:49902:35:21400:01:181301:41:46 04:51:40 
832938FJanie HayesWashington DC2700:34:521500:02:21702:33:24700:01:221201:41:15 04:53:12 
954628FMegan MartinGreencastle PA100:25:35500:02:073502:50:30500:01:18701:37:37 04:57:05 
1044533FAmanda HodgsonAlexandria VA500:29:211900:02:243602:50:372200:01:37401:34:14 04:58:10 
113453FDebi BernardesKing George VA1700:33:17600:02:081402:38:311700:01:311601:43:34 04:58:59 
1244433FCourtney FultonArlington VA4400:37:533900:02:531502:39:43900:01:24601:37:11 04:59:02 
1344933FKelly McLaughlinDurham NC400:28:411700:02:23602:33:013000:01:453201:53:26 04:59:13 
149846FPaula BennettPittsburgh PA3300:36:032200:02:301002:35:293600:01:561701:44:22 05:00:19 
1554429FAbby StollBethesda MD2000:34:065200:03:212502:45:138400:02:591401:42:41 05:08:18 
169946FJane CashRichmond VA1500:32:153800:02:512102:43:141200:01:272401:49:21 05:09:07 
1734037FAlyssa MorrisonWashington DC5000:38:512900:02:372002:42:173100:01:461801:45:02 05:10:31 
1853929FAllison MoonKing George VA1200:32:051600:02:222902:46:482400:01:392001:48:29 05:11:22 
1961524FEmily LongWashington DC2100:34:302700:02:362302:44:291100:01:272501:49:37 05:12:36 
2046330FJessica OldhamWashington DC6400:39:484100:02:563302:48:232700:01:401101:41:03 05:13:49 
2118942FAmy AdcockAlexandria VA1800:33:231100:02:163202:48:152800:01:412601:49:44 05:15:18 
2261922FChrissy EspositoBlacksburg VA7500:41:15400:02:042702:45:25600:01:221901:46:31 05:16:35 
2345233FDevon TroopHampstead MD4300:37:39700:02:111702:39:552100:01:373601:55:26 05:16:46 
2432039FDebra BrosnihanArlington VA3000:35:447100:03:391202:37:334200:02:124201:58:54 05:17:59 
2533737FTara ElgieRichmond VA1400:32:093100:02:412402:44:371500:01:303901:57:22 05:18:16 
2655427FEllen WexlerWashington DC5300:39:152100:02:302802:45:413700:01:572901:50:25 05:19:46 
2719941FHeidi ArmondaSilver Spring MD9200:42:035000:03:203702:51:031000:01:261501:42:42 05:20:31 
2844234FMelissa RiceCoatesville PA3800:37:172800:02:361302:38:05800:01:225102:01:22 05:20:41 
2953729FJill MacAriWashington DC3700:37:009100:04:093102:48:049500:03:142201:48:52 05:21:17 
3055227FEmily HalnonWashington DC3900:37:184300:03:026303:00:527600:02:471001:41:01 05:24:58 
PlaceBibAgSNAMEcity/stateRankSWIMRankT1RankBIKERankT2RankRUNPENALTYTIMEDQ
3145332FKimberly De JonckheereAlxandria VA1000:31:063600:02:493002:47:162300:01:375502:02:42 05:25:27 
3234836FAndrea WuebkerWashington DC3500:36:088000:03:511602:39:478500:02:596202:04:44 05:27:27 
3334935FAnne-Marie AdamsSpringfield VA600:29:343300:02:475803:00:189100:03:033401:54:22 05:30:02 
3418543FAngela BrechtGlen Allen VA8300:41:42800:02:114702:54:203900:02:002701:49:58 05:30:09 
3517744FKristin DidomenicoPotomac Falls VA6200:39:4714600:06:113802:51:0410400:03:212801:50:14 05:30:36 
3610945FJuda McGannonHunt Valley MD4000:37:234600:03:135602:59:223500:01:532301:48:58 05:30:47 
3710446FBarbara ScanlonColumbus OH8400:41:504000:02:534002:51:544900:02:173701:56:20 05:35:11 
3861723FBlakely HarrisLynchburg VA3200:36:036800:03:367703:05:327300:02:452101:48:42 05:36:34 
3955826FMelanie TurnerWoodbridge VA7400:40:574400:03:074802:54:255600:02:234001:57:38 05:38:27 
4020540FShawna BloweGlen Allen VA700:30:206100:03:306703:03:203200:01:474402:00:21 05:39:15 
4119042FEmily ArmstrongRockville MD9800:42:273000:02:404402:53:266500:02:374502:00:22 05:41:30 
4255127FElizabeth Danyliw MikhaleBoston MA9400:42:104800:03:185903:00:386700:02:393101:53:23 05:42:06 
4332139FKathleen BunchHerndon VA3600:36:255400:03:225402:57:378600:03:005202:01:52 05:42:13 
4445831FRobin HershArlington VA5900:39:435800:03:286903:03:345100:02:193501:54:36 05:43:39 
4546230FAdriana AndersonWoodbridge VA10400:43:208200:03:544902:55:3911600:04:153801:56:50 05:43:55 
4610146FDiane HuisRaleigh NC12400:45:566500:03:343902:51:176800:02:394902:01:04 05:44:28 
4753429FSarah EvansWashington DC           05:44:51 
4819142FKaren Ashbrook-BarnesVienna VA9500:42:1411000:04:436503:01:549200:03:083301:53:28 05:45:25 
4920341FCarolyn RobertsChappaqua NY6600:39:575700:03:285302:57:313300:01:485602:03:06 05:45:48 
5054528FMargaret HenryRockville MD1900:34:0511800:05:035702:59:2713100:05:275402:02:23 05:46:22 
5119742FMelissa UpchurchChurch Road VA7200:40:3212700:05:214602:53:576000:02:275902:04:10 05:46:25 
529148FPriscilla IronsManikin-Sabot VA900:30:372600:02:352602:45:231600:01:3011702:26:58 05:47:01 
5354727FAdrianne BrakefieldWashington Dc DC6500:39:504900:03:186103:00:473800:01:585002:01:14 05:47:05 
5419542FMichelle HorvathGreensboro NC8900:41:577500:03:434502:53:424700:02:147402:08:18 05:49:51 
5518244FAmy RandolphVirginia Beach VA5200:39:035900:03:297803:05:3210100:03:194301:59:57 05:51:19 
5618344FLynn RatnavaleBethesda MD3400:36:0412300:05:157003:03:415500:02:236002:04:10 05:51:32 
5719242FMary BrooksAlexandria VA6100:39:4510200:04:306603:02:318100:02:527002:07:20 05:56:56 
5817644FL. Jill BlankenburgRichmond VA7100:40:2615100:06:304302:53:2012000:04:228602:13:39 05:58:16 
5962120FAllison MaherOakton VA2800:34:588400:03:5813203:28:364400:02:123001:50:38 06:00:20 
608849FMolly RogersRichmond VA11000:44:414500:03:098403:07:327100:02:445702:03:37 06:01:43 
6117844FKirsten GloecknerSterling VA2300:34:3813300:05:285502:58:0913900:07:309302:16:06 06:01:50 
PlaceBibAgSNAMEcity/stateRankSWIMRankT1RankBIKERankT2RankRUNPENALTYTIMEDQ
6210545FJami Callahan-BrillHampton VA5400:39:197400:03:429203:10:326600:02:376602:06:52 06:03:00 
6321140FKarin NelsonMechanicsville VA2400:34:447200:03:397603:05:309300:03:129702:16:54 06:03:56 
6446530FMeredith WhitehurstRichmond VA6700:40:0813700:05:379303:11:096200:02:316302:04:48 06:04:09 
653553FAmy HarrisMechanicsville VA8100:41:4013600:05:346403:01:485200:02:228502:12:55 06:04:16 
6618643FTracy KillmerSterling VA6300:39:476700:03:355002:56:002900:01:4311102:23:25 06:04:29 
679347FPatty ClementsNew Market MD8000:41:306200:03:314202:52:3111100:03:4511302:23:56 06:05:11 
6833537FJeannette CrawfordWashington DC10000:42:5113500:05:347303:04:1810900:03:357602:09:55 06:06:13 
6944334FSabrina SteeleTroy VA7700:41:2110300:04:336003:00:465800:02:2610202:17:51 06:06:54 
7035235FDena RichardsonWashington DC12600:46:046000:03:308803:08:157200:02:456702:06:54 06:07:25 
7120241FTricia PowellRichmond VA8500:41:5112900:05:228503:07:455700:02:258102:10:47 06:08:08 
7234237FSarah PeterAshburn VA13000:47:1516000:08:305202:57:0014000:08:476802:07:01 06:08:32 
7345432FMelissa MatheRichmond VA10700:43:281800:02:236203:00:493400:01:5110702:20:35 06:09:03 
7432439FKeri Ann HayesWashington DC7600:41:2014700:06:149703:13:0112100:04:255802:04:05 06:09:03 
7544733FKate KonkovaHerndon VA12500:45:567800:03:4810703:15:3310200:03:204802:01:00 06:09:35 
7632539FAllison LoprestiChesapeake VA13800:48:238700:04:068603:07:468700:03:006502:06:25 06:09:38 
7753229FLindsey BachmanAlexandria VA13300:47:389800:04:2311103:17:225400:02:224101:58:17 06:10:00 
7855327FErin ShipeAlexandria VA11400:44:569000:04:089003:10:0010600:03:287202:07:42 06:10:13 
791555FMary WhitwellRocky Mount NC4200:37:369500:04:178903:09:337500:02:469402:16:10 06:10:21 
8018743FKathryn OliverRichmond VA6000:39:448300:03:569103:10:246100:02:278902:14:33 06:11:03 
8117944FLeah HaskvitzArlington VA5100:38:5911600:04:5811003:17:057000:02:447302:08:09 06:11:53 
824250FSabine HuttoHerndon VA12800:46:1813800:05:409503:11:2713500:05:536102:04:19 06:13:35 
8335435FKaren WillardArlington VA7900:41:2215200:06:379403:11:1811900:04:227702:10:10 06:13:48 
8456025FHillary PeabodyWashington DC9100:42:013500:02:4812203:24:229000:03:035302:02:22 06:14:34 
853353FVicki BateFrederick MD10100:43:125600:03:245102:56:556400:02:3611902:28:34 06:14:39 
8610645FHarriet FinkleKensington MD5700:39:3612800:05:2110803:16:119600:03:157902:10:23 06:14:45 
8734536FJennifer BlakesleeAlexandria VA8800:41:553400:02:4710503:14:562600:01:408702:14:00 06:15:15 
8845931FKatrina IngramAlexandria VA4900:38:435100:03:208003:05:481800:01:3211602:26:55 06:16:15 
8955626FErin GordonHerndon VA7300:40:5311500:04:5410903:16:4713000:05:267502:08:32 06:16:30 
903254FLaurie O'ConnorWake Forest NC14900:51:2611900:05:087903:05:4511200:03:597802:10:17 06:16:33 
9132339FConcepcion GuzmanVirginia Beach VA11300:44:5314300:06:038103:06:2112500:04:379002:14:46 06:16:38 
9245531FAlexandra DahlgrenMaidens VA9900:42:3210100:04:2712403:25:0512200:04:314702:00:32 06:17:07 
PlaceBibAgSNAMEcity/stateRankSWIMRankT1RankBIKERankT2RankRUNPENALTYTIMEDQ
9320041FAlexandra GehringArlington VA7000:40:267300:03:4010003:13:558000:02:519802:17:09 06:17:58 
943751FKaren BennettReston VA11100:44:4413400:05:2812103:22:1612900:05:034602:00:32 06:18:00 
9520441FAlice WiesnerCranberry Twp PA5500:39:258800:04:0610403:14:136900:02:4210002:17:36 06:18:01 
9645731FAndria Hayes-BirchlerWashington DC13100:47:2911400:04:498303:07:286300:02:3310102:17:47 06:20:04 
973951FCecelia KirkmanStafford VA10800:43:292400:02:318703:08:084600:02:1311402:24:03 06:20:21 
9844633FEmma KieranTakoma Park MD15400:54:128600:04:019603:12:565000:02:197102:07:37 06:21:03 
9935035FJacqueline McCarthyArlington VA9000:42:0013900:05:409803:13:1011000:03:4210302:18:10 06:22:40 
10010745FLori LambMidlothian VA7800:41:228100:03:517103:03:455900:02:2612502:31:24 06:22:47 
10134137FKate MorseAlexandria VA14300:50:0210000:04:2511603:19:1811300:04:006402:05:52 06:23:35 
10254129FKari ObermeyerRaleigh NC4700:38:383200:02:448203:06:261300:01:2812702:34:44 06:23:58 
10333837FAlice HowellFredericksburg VA10600:43:226900:03:362202:44:0811800:04:1713602:50:00 06:25:21 
10445133FJennifer TriboNorfolk VA4500:38:3014900:06:2312303:24:2311500:04:118402:12:14 06:25:38 
10533038FMarci KentSuffolk VA11700:45:069900:04:247203:04:007800:02:4812102:29:23 06:25:39 
10621340FJean SchmittCharlottesville VA14000:48:541300:02:1711203:17:482500:01:399902:17:29 06:28:06 
10710346FErin RoseMaidens VA11200:44:465500:03:2210203:13:599700:03:1611202:23:51 06:29:12 
10855526FMegan FisherMidlothian VA10900:43:555300:03:2111703:19:224100:02:1010802:20:45 06:29:32 
10961823FMorgan WilsonNorfolk VA8700:41:544200:03:0013303:28:448200:02:579102:15:45 06:32:18 
1109049FAmy WilliamsRichmond VA11500:44:586300:03:3112003:21:347700:02:4710902:23:03 06:35:51 
1119447FJulia MardersPotomac MD4600:38:387900:03:506803:03:2111400:04:0913302:46:55 06:36:51 
11246031FLaura MapleFredericksburg VA12900:46:349200:04:127503:05:178800:03:0213002:39:53 06:38:56 
11334736FDawn SzarekBaltimore MD16300:59:2310800:04:4213103:28:354300:02:126902:07:19 06:42:09 
11432239FMeghan EddyCharlottesville VA11600:45:008900:04:0610303:14:099900:03:1712802:35:45 06:42:15 
11519842FLoriann WatersPotomac Falls VA6800:40:1116200:12:0511803:21:2914200:12:599602:16:18 06:43:02 
11618843FSamantha TrainumArlington VA12300:45:5415000:06:2411903:21:3014100:12:589502:16:18 06:43:02 
117160FDorothy RichManakin Sabot VA15900:55:474700:03:1310603:15:264000:02:0611502:26:34 06:43:04 
11854229FAmanda SenaAlexandria VA13500:47:539300:04:1213703:30:534800:02:1610502:19:06 06:44:17 
11932838FMetessa BrehmBecklely WV13600:47:5710500:04:3714403:36:0112700:04:508302:11:57 06:45:21 
12011045FNancy MorrisLexington Park MD4800:38:402500:02:3114903:42:3110500:03:2210402:19:03 06:46:05 
12161623FAmanda GriffinAnnapolis MD13400:47:4611100:04:4514103:33:0713700:06:288802:14:13 06:46:17 
12235535FCheryl YoungNorfolk VA14500:50:0514800:06:1912903:27:1512800:04:5810602:20:18 06:48:53 
1239547FAmanda PrebleCentreville VA15000:52:0213000:05:2414503:37:0311700:04:178002:10:27 06:49:11 
PlaceBibAgSNAMEcity/stateRankSWIMRankT1RankBIKERankT2RankRUNPENALTYTIMEDQ
12433138FHolly McFeelyDoswell VA14700:50:308500:03:5914703:40:3910800:03:348202:10:54 06:49:35 
1259647FGina WelcSpringfield VA5800:39:3615300:06:3912703:25:5813400:05:3013102:40:00 06:57:41 
12633437FOrla BradyWashington DC15100:52:417700:03:4615003:42:468900:03:039202:16:04 06:58:18 
1274150FJudy HoldenRaleigh NC15300:53:3315900:08:2913803:31:079400:03:1211002:23:22 06:59:40 
1289248FDonna SumptionArlington VA16200:57:0115700:07:3012503:25:1712400:04:3311802:27:45 07:02:04 
12919342FKristen DayOakton VA12000:45:2914100:05:5214603:38:5110700:03:3012402:31:12 07:04:51 
13033238FMarta StadeliArlington VA15500:54:2212600:05:1913503:29:0513600:06:1812202:29:51 07:04:53 
13110845FLaine MalcottiEldersburg MD14400:50:0315600:07:1313603:30:1813200:05:2912602:32:51 07:05:53 
13221040FDeborah McKennaNorth Potomac MD11800:45:097000:03:3713403:28:4510300:03:2013402:47:07 07:07:56 
13332739FGwyn ReeceCrofton MD13900:48:4912100:05:1114303:34:5912600:04:4712902:38:09 07:11:53 
13418443FLisa BeckFairfax VA16401:02:1716300:13:47       07:14:14 
13510046FJane GilpinBethesda MD12700:46:0714000:05:4115303:47:1513800:06:2912002:28:51 07:14:22 
13654329FRebecca SmithHenrico VA14600:50:2910900:04:4314003:31:478300:02:5813502:48:20 07:18:16 
13762022FDenise RobertsonSan Juan Capistrano CA15700:55:137600:03:4513903:31:449800:03:1713202:46:53 07:20:49 
13819642FDawn QuickeChesterfield VA16000:56:536400:03:3215503:52:374500:02:1312302:31:03 07:26:16 
1393851FGinny BylundVienna VA           07:38:41Y
14053629FAudrey LanghamAlexandria VA9700:42:1712500:05:1815603:57:055300:02:2213702:55:41 07:42:41 
1413652FMaria PujolsGreensboro NC15600:54:3616100:08:4414203:34:4712300:04:3213903:05:19 07:47:56 
14233338FJennifer WeisbergerRichmond VA16501:05:4313100:05:2515103:42:5110000:03:1813803:02:32 07:59:48 
14365834FErica SteeleClarksburg MD14200:49:42         DNF 
14435335FAbigail SanfordWashington DC9300:42:069700:04:213402:50:217400:02:45 DNF DNF 
14520740FJen KnickerbockerOak Hill VA11900:45:2712000:05:087403:05:107900:02:49 DNF DNF 
14634636FTeri KempleChicago IL8200:41:4111200:04:459903:13:1713300:05:30 DNF DNF 
14765641FPatty ShoafDurham NC9600:42:16900:02:14302:32:13     DNF 
14864940FAmy FordRichmond VA1600:32:412000:02:301902:41:44     DNF 
14944134FKerri KramerVienna VA3100:35:582300:02:314102:52:25     DNF 
15064342FCatherine AlbrightRoanoke VA5600:39:2715500:07:0310103:13:57     DNF 
15134337FAnne PryorMaidens VA6900:40:1610700:04:4211503:18:44     DNF 
15232639FMary MartinezLake Stevens WA1300:32:0714200:05:5512603:25:50     DNF 
15355726FHeidi ShoemakerWestminster MD12100:45:516600:03:3511303:18:23     DNF 
15464830FValerie DixWoodbridge VA4100:37:369600:04:1812803:27:05     DNF 
PlaceBibAgSNAMEcity/stateRankSWIMRankT1RankBIKERankT2RankRUNPENALTYTIMEDQ
15571049FKristina AmentAlexandria VA14100:48:5714400:06:0611403:18:31     DNF 
15664750FDeborah ChamberlinAlexandria VA13200:47:349400:04:1314803:41:21     DNF 
15765532FKatie OseiFalls Church VA13700:47:5710600:04:3915203:45:53     DNF 
15865038FTracey FordAlexandria VA14800:51:1314500:06:0615403:51:53     DNF 
15965250FSally KiddSilver Spring MD15200:53:0813200:05:2715703:58:52     DNF 
16033937FKelly LindsayMarietta OH10200:43:1612200:05:1215804:09:07     DNF 
16164647FJanet BussBlacksburg VA2200:34:32         DNF 
16264446FJodi Hope AndersonRockville MD8600:41:54         DNF 
16365727FBelinda SmithAlexandria VA15800:55:4712400:05:16       DNF 
16420940FEsther LetscheCentreville VA10300:43:1815400:06:4013003:28:18     DNF 
16564544FDeanna BoehmGlen Allen VA12200:45:5311300:04:48101:07:08     DNFY
16644833FLaura McKennaCharlottesville VA10500:43:2110400:04:36       DNF 
16745033FAmanda PrestageRichmond VA16100:56:5711700:05:00       DNF 
16811145FSusanne WoodlanSilver Spring MD16601:21:5015800:07:37       DNF 

** Results are for the private use of participants and are the Intellectual Property of Set Up Events. Unauthorized use of these results is prohibited.